Time;durP1;ratioP1;P1;durP2;ratioP2;P2;SDS_P1;SDS_P2;PMS_P1;PMS_P2;Temp;Humidity;BMP_temperature;BMP_pressure;BME280_temperature;BME280_humidity;BME280_pressure;Samples;Min_cycle;Max_cycle;Signal;HPM_P1;HPM_P2
2022/02/04 00:24:47;;;;;;;39.77;27.13;;;;;;;-1.60;100.00;98256.55;1521515;93;21069;-70
2022/02/04 00:27:19;;;;;;;29.90;18.53;;;;;;;-1.63;100.00;98251.55;1530609;93;21113;-70
2022/02/04 00:29:54;;;;;;;34.47;22.37;;;;;;;-1.64;100.00;98253.84;1533766;93;21599;-69
2022/02/04 00:32:13;;;;;;;33.17;20.20;;;;;;;-1.64;100.00;98253.84;1537733;93;21093;-69
2022/02/04 00:34:47;;;;;;;32.30;21.23;;;;;;;-1.63;100.00;98259.50;1552600;90;21210;-71
2022/02/04 00:37:39;;;;;;;33.27;21.80;;;;;;;-1.65;100.00;98264.57;1563085;90;21107;-69
2022/02/04 00:40:06;;;;;;;33.93;23.30;;;;;;;-1.65;100.00;98257.45;1587508;89;21551;-69
2022/02/04 00:42:27;;;;;;;35.30;23.53;;;;;;;-1.63;100.00;98263.48;1563868;90;21036;-70
2022/02/04 00:45:09;;;;;;;31.90;20.20;;;;;;;-1.64;100.00;98260.46;1598898;89;21579;-70
2022/02/04 00:47:26;;;;;;;36.13;24.37;;;;;;;-1.67;100.00;98267.35;1589346;89;21060;-69
2022/02/04 00:50:07;;;;;;;36.23;24.97;;;;;;;-1.69;100.00;98270.63;1600325;89;21110;-69
2022/02/04 01:27:45;;;;;;;36.90;23.23;;;;;;;-1.90;100.00;98326.35;1623325;87;21069;-68
2022/02/04 01:30:19;;;;;;;35.57;20.77;;;;;;;-1.94;100.00;98336.38;1619942;87;21061;-70
2022/02/04 01:32:45;;;;;;;36.57;20.23;;;;;;;-1.99;100.00;98331.97;1766449;78;21002;-69
2022/02/04 01:35:12;;;;;;;39.27;24.23;;;;;;;-2.01;100.00;98336.56;1813909;78;21454;-69
2022/02/04 01:37:39;;;;;;;44.67;30.07;;;;;;;-2.02;100.00;98343.31;1818888;78;21079;-68
2022/02/04 01:40:08;;;;;;;41.50;26.30;;;;;;;-2.03;100.00;98341.66;1793982;78;21068;-69
2022/02/04 01:42:35;;;;;;;38.03;22.57;;;;;;;-2.03;100.00;98342.98;1817673;78;20970;-68
2022/02/04 01:45:03;;;;;;;39.00;24.27;;;;;;;-2.03;100.00;98354.90;1816886;78;21143;-69
2022/02/04 01:47:31;;;;;;;40.10;22.43;;;;;;;-2.07;100.00;98346.84;1785488;79;21553;-69
2022/02/04 01:49:59;;;;;;;35.27;21.20;;;;;;;-2.06;100.00;98359.12;1816250;79;21018;-69
2022/02/04 01:52:26;;;;;;;34.20;20.63;;;;;;;-2.09;100.00;98357.56;1793941;79;21014;-69
2022/02/04 01:54:53;;;;;;;57.77;37.63;;;;;;;-2.08;100.00;98360.58;1792815;79;21045;-69
2022/02/04 01:57:20;;;;;;;205.00;120.30;;;;;;;-2.07;100.00;98362.73;1820395;78;21521;-70
2022/02/04 01:59:47;;;;;;;79.13;48.07;;;;;;;-2.11;100.00;98353.75;1818245;79;20994;-69
2022/02/04 02:02:15;;;;;;;48.73;32.00;;;;;;;-2.13;100.00;98364.11;1818517;78;21542;-70
2022/02/04 02:04:42;;;;;;;35.50;21.47;;;;;;;-2.12;100.00;98372.42;1796046;78;21060;-69
2022/02/04 02:07:15;;;;;;;36.60;23.23;;;;;;;-2.14;100.00;98367.74;1796987;78;20958;-69
2022/02/04 02:09:53;;;;;;;49.07;31.90;;;;;;;-2.15;100.00;98362.91;1786117;78;21496;-69
2022/02/04 02:12:10;;;;;;;59.47;43.10;;;;;;;-2.16;100.00;98369.20;1791007;79;21069;-69
2022/02/04 02:14:38;;;;;;;70.23;47.07;;;;;;;-2.19;100.00;98376.56;1818536;79;21453;-70
2022/02/04 02:33:54;;;;;;;31.20;18.33;;;;;;;-2.19;100.00;98390.63;1791309;79;21048;-70
2022/02/04 02:44:12;;;;;;;34.00;19.23;;;;;;;-2.25;100.00;98404.38;1744407;80;21087;-70
2022/02/04 02:59:29;;;;;;;32.43;18.73;;;;;;;-2.30;100.00;98406.11;1774567;80;21038;-69
2022/02/04 03:01:52;;;;;;;31.07;17.70;;;;;;;-2.32;100.00;98408.05;1755017;80;21014;-68
2022/02/04 03:04:20;;;;;;;29.53;17.17;;;;;;;-2.32;100.00;98409.84;1738473;81;21118;-69
2022/02/04 03:06:47;;;;;;;84.47;54.57;;;;;;;-2.32;100.00;98408.05;1742592;81;21028;-70
2022/02/04 03:09:16;;;;;;;36.87;23.20;;;;;;;-2.34;100.00;98411.32;1743953;81;21074;-69
2022/02/04 03:11:43;;;;;;;33.13;21.57;;;;;;;-2.37;100.00;98415.54;1772048;80;21002;-69
2022/02/04 03:14:11;;;;;;;31.13;18.40;;;;;;;-2.38;100.00;98428.91;1744926;80;21061;-70
2022/02/04 03:16:39;;;;;;;31.07;17.67;;;;;;;-2.40;100.00;98420.25;1785982;79;21061;-69
2022/02/04 03:19:08;;;;;;;30.43;18.73;;;;;;;-2.40;100.00;98419.77;1787602;78;21030;-70
2022/02/04 03:21:39;;;;;;;30.70;17.97;;;;;;;-2.41;100.00;98415.91;1816349;78;21016;-70
2022/02/04 03:29:10;;;;;;;29.50;17.40;;;;;;;-2.44;100.00;98438.66;1754006;80;21084;-69
2022/02/04 03:34:06;;;;;;;27.83;16.57;;;;;;;-2.44;100.00;98441.31;1744521;82;21058;-68
2022/02/04 03:36:35;;;;;;;34.77;19.10;;;;;;;-2.44;100.00;98441.31;1735973;81;21090;-69
2022/02/04 03:39:03;;;;;;;38.23;23.13;;;;;;;-2.44;100.00;98435.55;1744483;81;21086;-69
2022/02/04 03:41:30;;;;;;;43.80;29.03;;;;;;;-2.41;100.00;98437.09;1741396;81;21026;-69
2022/02/04 03:43:57;;;;;;;33.53;18.93;;;;;;;-2.41;100.00;98448.52;1747603;81;21096;-69
2022/02/04 03:46:24;;;;;;;37.67;24.47;;;;;;;-2.41;100.00;98443.22;1746534;81;21569;-68
2022/02/04 03:48:52;;;;;;;34.63;22.87;;;;;;;-2.41;100.00;98453.80;1744110;81;21605;-69
2022/02/04 03:51:19;;;;;;;33.77;21.00;;;;;;;-2.40;100.00;98451.53;1742221;81;21034;-68
2022/02/04 03:53:46;;;;;;;34.77;21.07;;;;;;;-2.40;100.00;98452.02;1743606;81;21037;-70
2022/02/04 03:56:13;;;;;;;31.00;18.03;;;;;;;-2.38;100.00;98452.73;1746570;81;21018;-69
2022/02/04 03:58:42;;;;;;;31.00;17.87;;;;;;;-2.38;100.00;98451.41;1738996;81;21574;-69
2022/02/04 04:01:09;;;;;;;34.93;22.27;;;;;;;-2.39;100.00;98452.36;1747353;81;21038;-70
2022/02/04 04:03:36;;;;;;;31.27;18.17;;;;;;;-2.40;100.00;98461.28;1740264;81;21058;-69
2022/02/04 04:06:03;;;;;;;34.30;21.73;;;;;;;-2.40;100.00;98461.28;1739797;81;21566;-68
2022/02/04 04:08:30;;;;;;;34.30;20.90;;;;;;;-2.38;100.00;98461.99;1746357;82;20995;-68
2022/02/04 04:10:58;;;;;;;31.10;18.80;;;;;;;-2.40;100.00;98466.58;1750214;82;21077;-69
2022/02/04 04:13:26;;;;;;;33.77;20.90;;;;;;;-2.41;100.00;98468.86;1746367;81;21006;-68
2022/02/04 04:15:54;;;;;;;36.57;22.33;;;;;;;-2.44;100.00;98466.45;1724106;82;21604;-70
2022/02/04 04:18:21;;;;;;;36.57;23.33;;;;;;;-2.46;100.00;98470.58;1740593;81;21078;-69
2022/02/04 04:20:48;;;;;;;38.43;25.20;;;;;;;-2.44;100.00;98474.40;1738271;81;21622;-69
2022/02/04 04:23:16;;;;;;;32.77;19.63;;;;;;;-2.42;100.00;98477.78;1765596;79;21072;-70
2022/02/04 04:25:42;;;;;;;29.43;17.53;;;;;;;-2.42;100.00;98481.27;1793835;79;21006;-70
2022/02/04 04:28:09;;;;;;;35.17;21.50;;;;;;;-2.41;100.00;98482.92;1797003;79;20996;-69
2022/02/04 04:30:37;;;;;;;34.50;21.93;;;;;;;-2.42;100.00;98482.59;1779843;79;21082;-69
2022/02/04 04:33:04;;;;;;;34.90;22.27;;;;;;;-2.43;100.00;98482.22;1775396;80;20994;-69
2022/02/04 04:35:31;;;;;;;28.83;16.63;;;;;;;-2.44;100.00;98485.84;1765719;79;21500;-69
2022/02/04 04:46:16;;;;;;;30.30;18.23;;;;;;;-2.53;100.00;98499.84;1730829;82;21027;-70
2022/02/04 05:29:47;;;;;;;29.97;16.73;;;;;;;-2.77;100.00;98544.52;1782369;80;21041;-71
2022/02/04 05:32:14;;;;;;;31.00;19.00;;;;;;;-2.78;100.00;98550.79;1784623;80;20994;-71
2022/02/04 05:34:45;;;;;;;47.30;37.00;;;;;;;-2.77;100.00;98551.13;1785526;80;21514;-72
2022/02/04 05:37:15;;;;;;;35.77;23.10;;;;;;;-2.77;100.00;98559.56;1761990;80;21014;-69
2022/02/04 05:39:58;;;;;;;33.87;21.20;;;;;;;-2.77;100.00;98555.59;1786947;80;21053;-70
2022/02/04 05:45:02;;;;;;;37.30;22.27;;;;;;;-2.79;100.00;98559.67;1715948;83;21519;-70
2022/02/04 05:47:26;;;;;;;35.77;21.93;;;;;;;-2.81;100.00;98568.22;1705252;83;21106;-71
2022/02/04 05:52:36;;;;;;;32.43;18.60;;;;;;;-2.83;100.00;98567.51;1713262;83;21075;-70
2022/02/04 05:55:08;;;;;;;31.70;17.63;;;;;;;-2.83;100.00;98573.26;1683158;83;21135;-69
2022/02/04 05:57:55;;;;;;;30.73;18.50;;;;;;;-2.83;100.00;98568.83;1717548;82;21563;-69
2022/02/04 06:03:01;;;;;;;36.20;20.67;;;;;;;-2.82;100.00;98584.22;1636839;86;21559;-70
2022/02/04 06:08:18;;;;;;;49.70;29.10;;;;;;;-2.86;100.00;98587.09;1603853;86;21118;-71
2022/02/04 06:23:50;;;;;;;40.80;23.13;;;;;;;-2.85;100.00;98581.34;1613399;86;21216;-69
2022/02/04 06:26:17;;;;;;;86.00;45.87;;;;;;;-2.87;100.00;98574.84;1631635;86;21105;-69
2022/02/04 06:28:51;;;;;;;74.03;41.67;;;;;;;-2.87;100.00;98578.81;1608826;86;21094;-71
2022/02/04 06:31:20;;;;;;;38.63;25.73;;;;;;;-2.87;100.00;98578.81;1628959;87;21168;-71
2022/02/04 06:33:49;;;;;;;39.80;25.37;;;;;;;-2.86;100.00;98580.97;1630415;86;21066;-70
2022/02/04 06:36:16;;;;;;;35.03;20.47;;;;;;;-2.88;100.00;98586.88;1621248;86;21114;-70
2022/02/04 06:38:43;;;;;;;40.90;25.17;;;;;;;-2.91;100.00;98588.42;1617909;86;21102;-69
2022/02/04 06:41:10;;;;;;;35.33;19.77;;;;;;;-2.90;100.00;98587.48;1624738;84;21086;-71
2022/02/04 06:43:37;;;;;;;33.87;21.80;;;;;;;-2.89;100.00;98586.50;1704313;83;21094;-70
2022/02/04 06:46:11;;;;;;;38.20;24.43;;;;;;;-2.89;100.00;98582.04;1680094;84;21551;-71
2022/02/04 06:48:38;;;;;;;40.23;24.27;;;;;;;-2.88;100.00;98588.19;1670668;85;21081;-69
2022/02/04 06:51:05;;;;;;;33.13;19.80;;;;;;;-2.86;100.00;98595.03;1704485;84;21077;-69
2022/02/04 06:53:33;;;;;;;33.77;19.53;;;;;;;-2.83;100.00;98587.34;1688193;84;21082;-70
2022/02/04 06:56:00;;;;;;;30.90;17.63;;;;;;;-2.84;100.00;98589.63;1699394;83;21018;-70
2022/02/04 06:58:28;;;;;;;30.87;17.43;;;;;;;-2.85;100.00;98589.28;1699553;80;21517;-69
2022/02/04 07:00:56;;;;;;;27.90;16.60;;;;;;;-2.86;100.00;98586.27;1786732;79;21518;-70
2022/02/04 07:03:24;;;;;;;50.67;28.33;;;;;;;-2.87;100.00;98584.11;1810488;78;21059;-70
2022/02/04 07:05:56;;;;;;;50.17;33.30;;;;;;;-2.89;100.00;98589.14;1810598;78;21021;-69
2022/02/04 07:08:26;;;;;;;35.70;19.13;;;;;;;-2.91;100.00;98592.39;1784852;79;20998;-70
2022/02/04 07:13:33;;;;;;;42.33;27.10;;;;;;;-2.95;100.00;98593.12;1734003;82;21595;-70
2022/02/04 07:16:09;;;;;;;35.33;21.40;;;;;;;-2.94;100.00;98596.59;1727129;82;21060;-70
2022/02/04 07:21:06;;;;;;;49.07;26.50;;;;;;;-2.92;100.00;98605.25;1734394;82;21067;-69
2022/02/04 07:23:35;;;;;;;33.10;18.57;;;;;;;-2.88;100.00;98602.73;1732026;82;21074;-70
2022/02/04 07:26:04;;;;;;;47.93;26.47;;;;;;;-2.86;100.00;98597.67;1734768;82;21085;-72
2022/02/04 07:28:31;;;;;;;48.00;26.13;;;;;;;-2.88;100.00;98603.58;1711137;82;21577;-69
2022/02/04 07:31:00;;;;;;;36.90;23.67;;;;;;;-2.91;100.00;98614.39;1735802;82;21019;-72
2022/02/04 07:33:42;;;;;;;50.90;33.23;;;;;;;-2.94;100.00;98605.39;1730789;82;21494;-74
2022/02/04 07:40:52;;;;;;;32.40;20.10;;;;;;;-2.89;100.00;98603.69;1706581;83;21052;-69
2022/02/04 07:41:19;;;;;;;30.90;18.40;;;;;;;-2.90;100.00;98607.31;1698368;82;21504;-69
2022/02/04 07:43:46;;;;;;;34.33;21.07;;;;;;;-2.95;100.00;98606.34;1707560;83;21055;-69
2022/02/04 07:46:16;;;;;;;28.80;16.00;;;;;;;-2.94;100.00;98621.72;1692602;83;21626;-71
2022/02/04 07:48:43;;;;;;;28.57;16.80;;;;;;;-2.98;100.00;98621.61;1706559;82;21497;-69
2022/02/04 07:51:11;;;;;;;32.80;19.93;;;;;;;-3.01;100.00;98620.06;1696981;83;21071;-69
2022/02/04 07:53:38;;;;;;;38.57;23.90;;;;;;;-3.01;100.00;98627.13;1718578;82;21087;-71
2022/02/04 07:56:06;;;;;;;34.80;19.53;;;;;;;-3.01;100.00;98629.32;1702992;82;21076;-70
2022/02/04 07:58:34;;;;;;;31.57;16.33;;;;;;;-2.98;100.00;98621.61;1692241;82;21044;-69
2022/02/04 08:01:04;;;;;;;35.47;21.97;;;;;;;-2.95;100.00;98616.92;1663903;83;21139;-72
2022/02/04 08:03:42;;;;;;;30.70;18.13;;;;;;;-2.99;100.00;98624.75;1645670;85;21018;-70
2022/02/04 08:06:11;;;;;;;30.17;15.60;;;;;;;-3.03;100.00;98623.28;1647837;85;21094;-70
2022/02/04 08:08:55;;;;;;;30.80;17.80;;;;;;;-3.01;100.00;98628.45;1680409;84;21018;-71
2022/02/04 08:11:22;;;;;;;36.13;20.97;;;;;;;-3.03;100.00;98628.57;1642539;84;21600;-70
2022/02/04 08:27:19;;;;;;;49.70;31.00;;;;;;;-2.91;100.00;98632.07;1614424;86;21572;-71
2022/02/04 08:29:48;;;;;;;37.87;21.03;;;;;;;-2.94;100.00;98639.78;1643453;85;21053;-70
2022/02/04 08:32:25;;;;;;;53.00;27.80;;;;;;;-2.95;100.00;98638.08;1617233;87;21035;-70
2022/02/04 08:48:49;;;;;;;32.30;19.30;;;;;;;-2.97;100.00;98632.56;1691138;84;21033;-69
2022/02/04 08:56:00;;;;;;;51.77;27.93;;;;;;;-3.04;100.00;98631.36;1691157;83;21108;-70
2022/02/04 09:01:07;;;;;;;68.10;35.40;;;;;;;-3.03;100.00;98629.89;1691133;83;21067;-70
2022/02/04 09:06:18;;;;;;;48.90;27.55;;;;;;;-3.01;100.00;98621.84;1694031;84;21124;-69
2022/02/04 09:08:48;;;;;;;50.67;34.43;;;;;;;-3.00;100.00;98621.73;1661808;85;21622;-69
2022/02/04 09:11:17;;;;;;;49.10;31.80;;;;;;;-3.01;100.00;98614.77;1691032;84;21083;-70
2022/02/04 09:19:18;;;;;;;35.27;21.80;;;;;;;-3.04;100.00;98615.50;1782566;80;20986;-69
2022/02/04 09:22:05;;;;;;;36.20;20.10;;;;;;;-3.03;100.00;98611.38;1762090;80;21560;-67
2022/02/04 09:24:21;;;;;;;31.87;18.23;;;;;;;-3.02;100.00;98610.44;1780308;79;21054;-71
2022/02/04 09:26:50;;;;;;;25.23;15.23;;;;;;;-3.01;100.00;98604.66;1748606;80;21054;-70
2022/02/04 09:29:17;;;;;;;31.10;18.73;;;;;;;-3.01;100.00;98605.52;1780987;79;21025;-72
2022/02/04 09:31:44;;;;;;;31.83;20.33;;;;;;;-3.00;100.00;98603.22;1780281;79;21123;-69
2022/02/04 09:34:11;;;;;;;34.13;21.17;;;;;;;-2.98;100.00;98604.42;1747725;81;21101;-71
2022/02/04 09:36:38;;;;;;;38.23;25.10;;;;;;;-2.98;100.00;98605.25;1748166;81;21033;-72
2022/02/04 09:39:08;;;;;;;28.93;16.53;;;;;;;-2.93;100.00;98609.70;1733740;80;21554;-72
2022/02/04 09:41:43;;;;;;;30.93;17.63;;;;;;;-2.90;100.00;98604.18;1747659;80;21349;-69
2022/02/04 09:44:11;;;;;;;24.37;13.50;;;;;;;-2.89;100.00;98608.98;1778543;78;20951;-72
2022/02/04 09:46:38;;;;;;;26.90;16.60;;;;;;;-2.91;100.00;98602.97;1774008;79;21026;-71
2022/02/04 09:49:14;;;;;;;25.63;14.70;;;;;;;-2.92;100.00;98605.25;1779797;79;20971;-71
2022/02/04 10:08:34;;;;;;;28.90;16.67;;;;;;;-2.90;100.00;98606.83;1722267;82;21515;-70
2022/02/04 10:14:22;;;;;;;33.10;19.87;;;;;;;-2.90;100.00;98607.31;1693758;82;21075;-69
2022/02/04 10:17:06;;;;;;;35.20;23.03;;;;;;;-2.89;100.00;98603.69;1710260;82;21590;-72
2022/02/04 10:19:37;;;;;;;30.07;20.03;;;;;;;-2.87;100.00;98610.56;1730442;82;21070;-70
2022/02/04 10:22:01;;;;;;;60.53;41.63;;;;;;;-2.84;100.00;98617.40;1707248;82;21082;-72
2022/02/04 10:24:28;;;;;;;63.53;47.63;;;;;;;-2.81;100.00;98617.66;1701310;82;21376;-71
2022/02/04 10:27:16;;;;;;;41.20;30.53;;;;;;;-2.78;100.00;98612.09;1726127;82;21031;-69
2022/02/04 10:29:53;;;;;;;30.07;18.87;;;;;;;-2.73;100.00;98615.22;1694723;83;21041;-72
2022/02/04 10:32:40;;;;;;;26.60;14.90;;;;;;;-2.69;100.00;98612.72;1705649;82;21074;-71
2022/02/04 10:35:30;;;;;;;36.10;21.27;;;;;;;-2.72;100.00;98611.63;1678822;83;21022;-73
2022/02/04 10:46:06;;;;;;;178.90;116.67;;;;;;;-2.79;100.00;98607.79;1530813;92;21096;-72
2022/02/04 10:51:50;;;;;;;52.43;29.20;;;;;;;-2.78;100.00;98610.77;1515062;93;21186;-69
2022/02/04 10:57:05;;;;;;;67.57;42.20;;;;;;;-2.76;100.00;98607.06;1504689;94;21592;-72
2022/02/04 11:10:03;;;;;;;27.33;16.67;;;;;;;-2.59;100.00;98595.11;1510851;95;21591;-72
2022/02/04 11:52:45;;;;;;;39.00;23.90;;;;;;;-2.61;100.00;98609.45;1511892;95;21645;-72
2022/02/04 11:55:19;;;;;;;78.13;48.03;;;;;;;-2.62;100.00;98613.91;1535034;93;21062;-71
2022/02/04 11:57:56;;;;;;;59.23;34.37;;;;;;;-2.61;100.00;98616.06;1534544;92;21054;-70
2022/02/04 12:00:31;;;;;;;60.67;41.27;;;;;;;-2.62;100.00;98607.30;1515154;93;21081;-70
2022/02/04 12:02:58;;;;;;;47.27;29.60;;;;;;;-2.60;100.00;98617.73;1539557;92;21075;-69
2022/02/04 12:05:28;;;;;;;68.20;38.43;;;;;;;-2.60;100.00;98617.27;1572459;91;21260;-71
2022/02/04 12:08:11;;;;;;;124.90;69.90;;;;;;;-2.59;100.00;98617.61;1551651;91;21649;-71
2022/02/04 12:10:44;;;;;;;165.80;83.47;;;;;;;-2.60;100.00;98617.27;1570081;90;21089;-72
2022/02/04 12:13:11;;;;;;;85.55;56.33;;;;;;;-2.59;100.00;98618.10;1583335;90;21165;-70
2022/02/04 12:15:43;;;;;;;63.57;34.83;;;;;;;-2.58;100.00;98622.44;1691257;83;21034;-69
2022/02/04 12:18:41;;;;;;;66.40;34.53;;;;;;;-2.62;100.00;98627.14;1746005;82;21053;-71
2022/02/04 12:21:11;;;;;;;43.27;25.47;;;;;;;-2.62;100.00;98619.20;1717551;82;21055;-71
2022/02/04 12:23:44;;;;;;;50.00;27.47;;;;;;;-2.62;100.00;98614.37;1687295;83;21029;-69
2022/02/04 12:26:17;;;;;;;47.93;25.50;;;;;;;-2.63;100.00;98618.83;1726275;82;20988;-70
2022/02/04 12:31:40;;;;;;;35.63;18.90;;;;;;;-2.59;100.00;98612.31;1635793;86;21065;-70
2022/02/04 12:34:13;;;;;;;35.70;20.73;;;;;;;-2.53;100.00;98621.11;1632759;87;20986;-69
2022/02/04 12:36:58;;;;;;;42.13;25.03;;;;;;;-2.55;100.00;98619.06;1641914;87;21082;-70
2022/02/04 12:39:30;;;;;;;42.23;22.50;;;;;;;-2.54;100.00;98622.05;1632906;87;21594;-69
2022/02/04 12:41:59;;;;;;;128.30;57.63;;;;;;;-2.53;100.00;98618.45;1612230;88;21570;-70
2022/02/04 12:44:38;;;;;;;121.53;58.20;;;;;;;-2.54;100.00;98624.70;1616783;88;21046;-70
2022/02/04 12:47:14;;;;;;;86.67;45.17;;;;;;;-2.53;100.00;98628.21;1605374;86;21103;-70
2022/02/04 12:49:51;;;;;;;132.57;74.83;;;;;;;-2.51;100.00;98629.76;1588141;88;21066;-70
2022/02/04 12:52:24;;;;;;;69.70;41.90;;;;;;;-2.46;100.00;98633.83;1586715;90;21119;-71
2022/02/04 12:55:07;;;;;;;62.77;40.27;;;;;;;-2.44;100.00;98635.88;1584759;90;21069;-70
2022/02/04 13:28:44;;;;;;;109.73;63.57;;;;;;;-2.74;100.00;98658.05;1361643;103;21136;-70
2022/02/04 13:31:13;;;;;;;106.43;49.13;;;;;;;-2.74;100.00;98664.66;1361865;103;21682;-70
2022/02/04 13:33:44;;;;;;;100.83;51.60;;;;;;;-2.75;100.00;98676.20;1388491;100;21117;-70
2022/02/04 13:36:31;;;;;;;88.57;47.57;;;;;;;-2.75;100.00;98669.58;1408025;100;21160;-69
2022/02/04 13:39:23;;;;;;;109.60;63.67;;;;;;;-2.74;100.00;98666.48;1404462;100;21132;-72
2022/02/04 13:47:44;;;;;;;54.53;30.87;;;;;;;-2.78;100.00;98680.89;1344477;105;21326;-73
2022/02/04 13:50:21;;;;;;;68.33;36.33;;;;;;;-2.75;100.00;98672.23;1316687;106;22456;-72
2022/02/04 13:52:55;;;;;;;70.70;36.93;;;;;;;-2.76;100.00;98674.53;1342130;104;21237;-71
2022/02/04 13:55:29;;;;;;;47.80;25.47;;;;;;;-2.79;100.00;98677.41;1342543;105;21353;-72
2022/02/04 14:00:53;;;;;;;53.33;27.97;;;;;;;-2.86;100.00;98685.47;1333904;105;21214;-71
2022/02/04 14:03:26;;;;;;;72.27;35.87;;;;;;;-2.89;100.00;98683.05;1367539;104;21361;-72
2022/02/04 14:08:38;;;;;;;129.73;63.50;;;;;;;-2.90;100.00;98683.53;1492491;95;21124;-70
2022/02/04 14:11:06;;;;;;;98.97;53.17;;;;;;;-2.88;100.00;98693.52;1454132;96;21103;-71
2022/02/04 14:13:32;;;;;;;91.93;53.93;;;;;;;-2.88;100.00;98694.84;1464616;97;21086;-70
2022/02/04 14:16:05;;;;;;;53.27;32.87;;;;;;;-2.85;100.00;98695.09;1467856;96;21115;-70
2022/02/04 14:18:36;;;;;;;84.00;48.55;;;;;;;-2.86;100.00;98696.05;1386402;102;21163;-71
2022/02/04 14:21:04;;;;;;;114.43;58.20;;;;;;;-2.88;100.00;98696.65;1412690;97;21481;-71
2022/02/04 14:23:31;;;;;;;43.73;24.30;;;;;;;-2.88;100.00;98713.36;1533189;93;21077;-71
2022/02/04 14:26:09;;;;;;;80.23;41.37;;;;;;;-2.88;100.00;98710.71;1533073;93;21110;-71
2022/02/04 14:28:53;;;;;;;94.33;50.20;;;;;;;-2.90;100.00;98711.31;1515514;93;21156;-70
2022/02/04 14:50:33;;;;;;;26.27;16.27;;;;;;;-3.16;100.00;98727.84;1587014;86;21105;-71
2022/02/04 15:00:49;;;;;;;20.63;12.50;;;;;;;-3.29;100.00;98733.22;1581965;89;21240;-70
2022/02/04 15:03:17;;;;;;;41.53;27.80;;;;;;;-3.33;100.00;98733.56;1577643;90;21604;-71
2022/02/04 15:05:46;;;;;;;46.63;29.03;;;;;;;-3.35;100.00;98736.80;1610078;87;21034;-73
2022/02/04 15:08:16;;;;;;;46.50;27.53;;;;;;;-3.35;100.00;98747.38;1611010;87;21046;-69
2022/02/04 15:10:43;;;;;;;34.77;19.77;;;;;;;-3.36;100.00;98752.31;1605524;87;21172;-70
2022/02/04 15:13:14;;;;;;;35.20;22.13;;;;;;;-3.37;100.00;98751.94;1610847;88;21381;-71
2022/02/04 15:15:41;;;;;;;30.63;19.70;;;;;;;-3.40;100.00;98754.31;1654332;86;21045;-72
2022/02/04 15:18:09;;;;;;;27.97;16.30;;;;;;;-3.41;100.00;98763.70;1646530;86;21108;-72
2022/02/04 15:20:37;;;;;;;24.07;12.50;;;;;;;-3.46;100.00;98763.55;1622026;88;21166;-71
2022/02/04 15:23:05;;;;;;;29.80;17.10;;;;;;;-3.48;100.00;98769.42;1591476;89;21110;-70
2022/02/04 15:25:33;;;;;;;29.50;16.33;;;;;;;-3.51;100.00;98774.93;1615371;88;21062;-70
2022/02/04 15:30:48;;;;;;;27.03;14.03;;;;;;;-3.60;100.00;98780.90;1609251;88;21050;-70
2022/02/04 15:33:17;;;;;;;22.07;12.33;;;;;;;-3.65;100.00;98788.31;1607813;88;21573;-70
2022/02/04 15:35:44;;;;;;;26.53;13.47;;;;;;;-3.66;100.00;98787.97;1731576;80;20951;-71
2022/02/04 15:38:12;;;;;;;49.30;29.40;;;;;;;-3.68;100.00;98790.72;1787517;79;21078;-71
2022/02/04 15:40:44;;;;;;;213.93;105.37;;;;;;;-3.70;100.00;98796.59;1761024;80;21119;-71
2022/02/04 15:43:10;;;;;;;114.00;66.43;;;;;;;-3.71;100.00;98793.57;1788874;80;21042;-71
2022/02/04 15:46:01;;;;;;;26.30;15.70;;;;;;;-3.72;100.00;98807.75;1793639;79;21053;-71
2022/02/04 15:53:59;;;;;;;34.57;19.27;;;;;;;-3.73;100.00;98822.39;1797322;79;21066;-71
2022/02/04 16:03:56;;;;;;;26.63;15.13;;;;;;;-3.75;100.00;98826.91;1702962;83;21021;-70
2022/02/04 16:06:20;;;;;;;23.20;12.63;;;;;;;-3.77;100.00;98828.38;1754505;80;20995;-70
2022/02/04 16:08:49;;;;;;;24.07;12.57;;;;;;;-3.78;100.00;98825.84;1759736;80;21062;-70
2022/02/04 16:11:33;;;;;;;25.50;14.33;;;;;;;-3.82;100.00;98827.86;1764164;81;21534;-70
2022/02/04 16:13:55;;;;;;;26.57;15.48;;;;;;;-3.82;100.00;98840.58;1758397;80;21025;-73
2022/02/04 16:16:24;;;;;;;27.60;14.40;;;;;;;-3.83;100.00;98838.04;1776165;80;21081;-73
2022/02/04 16:19:06;;;;;;;27.73;15.37;;;;;;;-3.83;100.00;98840.68;1746230;80;21054;-71
2022/02/04 16:21:43;;;;;;;31.93;17.50;;;;;;;-3.84;100.00;98846.94;1770605;80;21050;-70
2022/02/04 16:26:54;;;;;;;26.40;14.07;;;;;;;-3.84;100.00;98853.54;1765760;80;21070;-70
2022/02/04 16:29:17;;;;;;;25.00;13.40;;;;;;;-3.85;100.00;98855.31;1741976;80;21470;-70
2022/02/04 16:31:44;;;;;;;23.43;13.10;;;;;;;-3.85;100.00;98853.16;1777201;80;20991;-69
2022/02/04 16:34:15;;;;;;;24.73;13.10;;;;;;;-3.86;100.00;98854.97;1736406;81;21022;-70
2022/02/04 16:36:45;;;;;;;26.40;15.63;;;;;;;-3.86;100.00;98862.02;1705033;83;21532;-70
2022/02/04 16:39:12;;;;;;;29.80;16.70;;;;;;;-3.87;100.00;98865.63;1720131;82;21081;-72
2022/02/04 16:42:03;;;;;;;31.67;20.33;;;;;;;-3.89;100.00;98863.09;1769809;80;21030;-70
2022/02/04 16:44:24;;;;;;;24.00;13.37;;;;;;;-3.86;100.00;98865.98;1726092;82;21035;-70
2022/02/04 16:46:51;;;;;;;27.87;14.37;;;;;;;-3.88;100.00;98866.13;1765140;80;21010;-70
2022/02/04 16:49:18;;;;;;;33.60;20.00;;;;;;;-3.88;100.00;98863.93;1768375;80;20987;-70
2022/02/04 16:51:47;;;;;;;40.37;23.83;;;;;;;-3.91;100.00;98862.81;1760843;80;21026;-71
2022/02/04 16:54:16;;;;;;;33.73;18.73;;;;;;;-3.92;100.00;98870.39;1766567;80;21475;-70
2022/02/04 16:56:45;;;;;;;42.13;25.47;;;;;;;-3.93;100.00;98866.92;1749515;80;21443;-70
2022/02/04 16:59:13;;;;;;;127.70;78.13;;;;;;;-3.93;100.00;98861.63;1779448;80;21050;-70
2022/02/04 17:01:47;;;;;;;35.87;21.93;;;;;;;-3.93;100.00;98857.67;1783616;80;21126;-70
2022/02/04 17:04:16;;;;;;;40.30;19.97;;;;;;;-3.92;100.00;98865.95;1778856;80;21007;-70
2022/02/04 17:06:46;;;;;;;43.63;22.97;;;;;;;-3.92;100.00;98865.11;1781025;80;20963;-70
2022/02/04 17:11:49;;;;;;;24.02;12.85;;;;;;;-3.93;100.00;98865.59;1753155;81;20990;-71
2022/02/04 17:14:20;;;;;;;21.97;12.73;;;;;;;-3.92;100.00;98873.87;1725962;82;21051;-71
2022/02/04 17:16:47;;;;;;;24.90;12.93;;;;;;;-3.91;100.00;98870.74;1722833;82;21121;-70
2022/02/04 17:19:23;;;;;;;22.20;11.57;;;;;;;-3.89;100.00;98876.30;1706836;82;21125;-71
2022/02/04 17:21:49;;;;;;;21.57;11.80;;;;;;;-3.88;100.00;98877.14;1712160;82;20950;-71
2022/02/04 17:24:19;;;;;;;21.17;11.43;;;;;;;-3.87;100.00;98880.16;1727748;82;21013;-71
2022/02/04 17:26:58;;;;;;;23.73;12.23;;;;;;;-3.87;100.00;98877.03;1697815;83;21082;-71
2022/02/04 17:29:30;;;;;;;29.10;15.50;;;;;;;-3.86;100.00;98877.42;1726264;82;21049;-70
2022/02/04 17:31:58;;;;;;;24.67;13.53;;;;;;;-3.85;100.00;98875.61;1720241;82;21078;-71
2022/02/04 17:34:28;;;;;;;26.77;15.07;;;;;;;-3.84;100.00;98874.19;1738071;82;21009;-71
2022/02/04 17:36:57;;;;;;;27.50;14.60;;;;;;;-3.84;100.00;98879.95;1721927;82;21686;-70
2022/02/04 17:39:25;;;;;;;25.93;15.10;;;;;;;-3.85;100.00;98880.89;1685268;83;21026;-70
2022/02/04 17:41:57;;;;;;;23.73;12.97;;;;;;;-3.86;100.00;98878.73;1708015;83;21582;-69
2022/02/04 17:44:24;;;;;;;22.53;11.53;;;;;;;-3.85;100.00;98878.25;1688490;82;21069;-69
2022/02/04 17:46:52;;;;;;;21.77;11.40;;;;;;;-3.86;100.00;98882.70;1720392;82;21133;-70
2022/02/04 17:49:31;;;;;;;25.07;10.93;;;;;;;-3.85;100.00;98884.37;1729910;82;21017;-70
2022/02/04 17:52:14;;;;;;;25.70;12.37;;;;;;;-3.84;100.00;98888.71;1725147;82;21050;-71
2022/02/04 17:54:45;;;;;;;24.80;13.30;;;;;;;-3.83;100.00;98882.95;1725169;82;21022;-70
2022/02/04 17:57:15;;;;;;;23.47;11.70;;;;;;;-3.83;100.00;98881.14;1690379;84;21039;-70
2022/02/04 17:59:51;;;;;;;59.53;37.77;;;;;;;-3.83;100.00;98887.74;1709209;83;20999;-71
2022/02/04 18:02:09;;;;;;;20.60;11.33;;;;;;;-3.80;100.00;98885.38;1713014;82;21064;-70
2022/02/04 18:07:23;;;;;;;22.80;12.60;;;;;;;-3.78;100.00;98890.55;1702403;84;21019;-69
2022/02/04 18:09:50;;;;;;;21.60;11.77;;;;;;;-3.77;100.00;98892.22;1711383;83;21093;-70
2022/02/04 18:12:23;;;;;;;22.17;11.17;;;;;;;-3.78;100.00;98891.39;1687113;84;21030;-70